sensor_id;sensor_type;location;lat;lon;timestamp;P1;durP1;ratioP1;P2;durP2;ratioP2
70920;SDS011;58572;48.110;19.838;2023-04-03T00:02:10;3.20;;;1.30;;
70920;SDS011;58572;48.110;19.838;2023-04-03T00:04:37;2.90;;;1.60;;
70920;SDS011;58572;48.110;19.838;2023-04-03T00:07:05;3.05;;;1.05;;
70920;SDS011;58572;48.110;19.838;2023-04-03T00:09:32;4.38;;;1.45;;
70920;SDS011;58572;48.110;19.838;2023-04-03T00:11:59;3.00;;;1.50;;
70920;SDS011;58572;48.110;19.838;2023-04-03T00:14:27;2.55;;;1.35;;
70920;SDS011;58572;48.110;19.838;2023-04-03T00:16:54;2.92;;;1.50;;
70920;SDS011;58572;48.110;19.838;2023-04-03T00:19:21;4.20;;;2.72;;
70920;SDS011;58572;48.110;19.838;2023-04-03T00:21:48;2.40;;;1.63;;
70920;SDS011;58572;48.110;19.838;2023-04-03T00:24:15;2.58;;;1.65;;
70920;SDS011;58572;48.110;19.838;2023-04-03T00:26:42;3.47;;;1.52;;
70920;SDS011;58572;48.110;19.838;2023-04-03T00:29:09;2.65;;;1.45;;
70920;SDS011;58572;48.110;19.838;2023-04-03T00:31:38;4.13;;;2.10;;
70920;SDS011;58572;48.110;19.838;2023-04-03T00:34:05;2.45;;;1.00;;
70920;SDS011;58572;48.110;19.838;2023-04-03T00:36:32;2.33;;;1.50;;
70920;SDS011;58572;48.110;19.838;2023-04-03T00:38:59;2.70;;;1.63;;
70920;SDS011;58572;48.110;19.838;2023-04-03T00:41:26;2.47;;;1.65;;
70920;SDS011;58572;48.110;19.838;2023-04-03T00:43:53;2.70;;;1.67;;
70920;SDS011;58572;48.110;19.838;2023-04-03T00:46:20;2.35;;;1.08;;
70920;SDS011;58572;48.110;19.838;2023-04-03T00:48:48;2.85;;;1.15;;
70920;SDS011;58572;48.110;19.838;2023-04-03T00:51:18;3.42;;;1.67;;
70920;SDS011;58572;48.110;19.838;2023-04-03T00:53:49;2.55;;;1.70;;
70920;SDS011;58572;48.110;19.838;2023-04-03T00:56:21;2.55;;;1.48;;
70920;SDS011;58572;48.110;19.838;2023-04-03T00:58:52;2.35;;;1.30;;
70920;SDS011;58572;48.110;19.838;2023-04-03T01:01:23;3.65;;;1.67;;
70920;SDS011;58572;48.110;19.838;2023-04-03T01:03:54;2.95;;;1.48;;
70920;SDS011;58572;48.110;19.838;2023-04-03T01:06:21;2.55;;;1.52;;
70920;SDS011;58572;48.110;19.838;2023-04-03T01:08:52;2.15;;;1.33;;
70920;SDS011;58572;48.110;19.838;2023-04-03T01:11:20;2.20;;;1.40;;
70920;SDS011;58572;48.110;19.838;2023-04-03T01:13:47;2.70;;;1.70;;
70920;SDS011;58572;48.110;19.838;2023-04-03T01:16:15;3.60;;;1.73;;
70920;SDS011;58572;48.110;19.838;2023-04-03T01:18:42;1.83;;;1.02;;
70920;SDS011;58572;48.110;19.838;2023-04-03T01:24:12;2.17;;;1.33;;
70920;SDS011;58572;48.110;19.838;2023-04-03T01:26:48;2.55;;;1.70;;
70920;SDS011;58572;48.110;19.838;2023-04-03T01:29:15;3.40;;;1.70;;
70920;SDS011;58572;48.110;19.838;2023-04-03T01:31:54;3.60;;;1.60;;
70920;SDS011;58572;48.110;19.838;2023-04-03T01:34:22;2.58;;;1.45;;
70920;SDS011;58572;48.110;19.838;2023-04-03T01:36:50;2.33;;;1.27;;
70920;SDS011;58572;48.110;19.838;2023-04-03T01:39:17;2.85;;;1.60;;
70920;SDS011;58572;48.110;19.838;2023-04-03T01:41:45;3.00;;;1.70;;
70920;SDS011;58572;48.110;19.838;2023-04-03T01:44:12;2.70;;;1.25;;
70920;SDS011;58572;48.110;19.838;2023-04-03T01:46:40;2.88;;;2.03;;
70920;SDS011;58572;48.110;19.838;2023-04-03T01:49:09;3.45;;;2.17;;
70920;SDS011;58572;48.110;19.838;2023-04-03T01:51:36;2.50;;;1.50;;
70920;SDS011;58572;48.110;19.838;2023-04-03T01:54:03;3.13;;;1.73;;
70920;SDS011;58572;48.110;19.838;2023-04-03T01:56:30;4.00;;;1.55;;
70920;SDS011;58572;48.110;19.838;2023-04-03T01:58:57;2.60;;;1.65;;
70920;SDS011;58572;48.110;19.838;2023-04-03T02:01:25;3.15;;;1.92;;
70920;SDS011;58572;48.110;19.838;2023-04-03T02:03:52;2.75;;;1.52;;
70920;SDS011;58572;48.110;19.838;2023-04-03T02:06:20;2.65;;;1.65;;
70920;SDS011;58572;48.110;19.838;2023-04-03T02:08:47;2.25;;;1.50;;
70920;SDS011;58572;48.110;19.838;2023-04-03T02:11:14;2.53;;;1.27;;
70920;SDS011;58572;48.110;19.838;2023-04-03T02:13:41;3.00;;;1.73;;
70920;SDS011;58572;48.110;19.838;2023-04-03T02:16:09;2.45;;;1.60;;
70920;SDS011;58572;48.110;19.838;2023-04-03T02:18:37;4.32;;;1.38;;
70920;SDS011;58572;48.110;19.838;2023-04-03T02:21:05;3.83;;;2.00;;
70920;SDS011;58572;48.110;19.838;2023-04-03T02:23:33;2.97;;;1.67;;
70920;SDS011;58572;48.110;19.838;2023-04-03T02:26:05;3.47;;;1.83;;
70920;SDS011;58572;48.110;19.838;2023-04-03T02:28:33;2.72;;;1.48;;
70920;SDS011;58572;48.110;19.838;2023-04-03T02:31:00;4.07;;;1.70;;
70920;SDS011;58572;48.110;19.838;2023-04-03T02:33:28;2.50;;;1.48;;
70920;SDS011;58572;48.110;19.838;2023-04-03T02:35:55;2.58;;;1.70;;
70920;SDS011;58572;48.110;19.838;2023-04-03T02:38:23;3.28;;;1.80;;
70920;SDS011;58572;48.110;19.838;2023-04-03T02:40:52;2.72;;;1.35;;
70920;SDS011;58572;48.110;19.838;2023-04-03T02:43:19;3.15;;;2.20;;
70920;SDS011;58572;48.110;19.838;2023-04-03T02:45:46;2.47;;;1.58;;
70920;SDS011;58572;48.110;19.838;2023-04-03T02:48:13;2.55;;;1.65;;
70920;SDS011;58572;48.110;19.838;2023-04-03T02:50:41;5.35;;;1.90;;
70920;SDS011;58572;48.110;19.838;2023-04-03T02:53:08;2.80;;;1.90;;
70920;SDS011;58572;48.110;19.838;2023-04-03T02:55:36;3.63;;;1.88;;
70920;SDS011;58572;48.110;19.838;2023-04-03T02:58:04;3.20;;;1.80;;
70920;SDS011;58572;48.110;19.838;2023-04-03T03:00:31;3.00;;;1.75;;
70920;SDS011;58572;48.110;19.838;2023-04-03T03:02:58;2.88;;;1.77;;
70920;SDS011;58572;48.110;19.838;2023-04-03T03:05:26;3.25;;;1.70;;
70920;SDS011;58572;48.110;19.838;2023-04-03T03:07:53;2.50;;;1.50;;
70920;SDS011;58572;48.110;19.838;2023-04-03T03:10:20;2.65;;;1.65;;
70920;SDS011;58572;48.110;19.838;2023-04-03T03:15:16;4.50;;;1.77;;
70920;SDS011;58572;48.110;19.838;2023-04-03T03:17:44;3.10;;;1.85;;
70920;SDS011;58572;48.110;19.838;2023-04-03T03:20:12;3.38;;;1.73;;
70920;SDS011;58572;48.110;19.838;2023-04-03T03:22:40;3.45;;;1.98;;
70920;SDS011;58572;48.110;19.838;2023-04-03T03:25:08;3.03;;;1.70;;
70920;SDS011;58572;48.110;19.838;2023-04-03T03:27:35;3.50;;;1.80;;
70920;SDS011;58572;48.110;19.838;2023-04-03T03:30:03;3.30;;;1.92;;
70920;SDS011;58572;48.110;19.838;2023-04-03T03:32:32;3.28;;;1.63;;
70920;SDS011;58572;48.110;19.838;2023-04-03T03:34:59;3.53;;;1.52;;
70920;SDS011;58572;48.110;19.838;2023-04-03T03:37:26;3.00;;;1.65;;
70920;SDS011;58572;48.110;19.838;2023-04-03T03:39:54;3.10;;;2.80;;
70920;SDS011;58572;48.110;19.838;2023-04-03T03:42:21;3.33;;;1.70;;
70920;SDS011;58572;48.110;19.838;2023-04-03T03:44:48;2.90;;;1.52;;
70920;SDS011;58572;48.110;19.838;2023-04-03T03:47:16;4.38;;;1.77;;
70920;SDS011;58572;48.110;19.838;2023-04-03T03:49:45;3.70;;;1.70;;
70920;SDS011;58572;48.110;19.838;2023-04-03T03:52:12;3.15;;;1.40;;
70920;SDS011;58572;48.110;19.838;2023-04-03T03:54:39;3.30;;;1.75;;
70920;SDS011;58572;48.110;19.838;2023-04-03T03:57:06;2.75;;;1.80;;
70920;SDS011;58572;48.110;19.838;2023-04-03T03:59:34;3.70;;;1.77;;
70920;SDS011;58572;48.110;19.838;2023-04-03T04:02:01;3.53;;;1.95;;
70920;SDS011;58572;48.110;19.838;2023-04-03T04:04:28;3.28;;;1.85;;
70920;SDS011;58572;48.110;19.838;2023-04-03T04:06:56;2.88;;;1.45;;
70920;SDS011;58572;48.110;19.838;2023-04-03T04:09:25;2.95;;;1.67;;
70920;SDS011;58572;48.110;19.838;2023-04-03T04:11:52;5.03;;;1.30;;
70920;SDS011;58572;48.110;19.838;2023-04-03T04:14:20;3.28;;;2.08;;
70920;SDS011;58572;48.110;19.838;2023-04-03T04:16:47;4.85;;;1.85;;
70920;SDS011;58572;48.110;19.838;2023-04-03T04:19:14;3.30;;;1.95;;
70920;SDS011;58572;48.110;19.838;2023-04-03T04:21:41;3.00;;;1.90;;
70920;SDS011;58572;48.110;19.838;2023-04-03T04:24:10;3.78;;;1.88;;
70920;SDS011;58572;48.110;19.838;2023-04-03T04:26:37;3.08;;;1.80;;
70920;SDS011;58572;48.110;19.838;2023-04-03T04:29:04;3.78;;;2.08;;
70920;SDS011;58572;48.110;19.838;2023-04-03T04:31:31;5.20;;;2.22;;
70920;SDS011;58572;48.110;19.838;2023-04-03T04:33:58;3.67;;;1.90;;
70920;SDS011;58572;48.110;19.838;2023-04-03T04:36:26;3.40;;;2.13;;
70920;SDS011;58572;48.110;19.838;2023-04-03T04:38:53;5.07;;;2.10;;
70920;SDS011;58572;48.110;19.838;2023-04-03T04:41:21;3.35;;;1.70;;
70920;SDS011;58572;48.110;19.838;2023-04-03T04:43:49;3.13;;;1.80;;
70920;SDS011;58572;48.110;19.838;2023-04-03T04:46:17;3.58;;;1.75;;
70920;SDS011;58572;48.110;19.838;2023-04-03T04:48:44;4.28;;;2.08;;
70920;SDS011;58572;48.110;19.838;2023-04-03T04:51:11;3.95;;;2.00;;
70920;SDS011;58572;48.110;19.838;2023-04-03T04:53:39;3.33;;;1.88;;
70920;SDS011;58572;48.110;19.838;2023-04-03T04:56:06;2.92;;;1.88;;
70920;SDS011;58572;48.110;19.838;2023-04-03T04:58:35;2.85;;;1.90;;
70920;SDS011;58572;48.110;19.838;2023-04-03T05:01:02;2.03;;;1.50;;
70920;SDS011;58572;48.110;19.838;2023-04-03T05:03:31;3.90;;;2.28;;
70920;SDS011;58572;48.110;19.838;2023-04-03T05:05:59;2.88;;;1.90;;
70920;SDS011;58572;48.110;19.838;2023-04-03T05:08:26;2.55;;;1.55;;
70920;SDS011;58572;48.110;19.838;2023-04-03T05:10:53;2.30;;;1.40;;
70920;SDS011;58572;48.110;19.838;2023-04-03T05:13:20;3.58;;;1.70;;
70920;SDS011;58572;48.110;19.838;2023-04-03T05:15:49;2.22;;;1.33;;
70920;SDS011;58572;48.110;19.838;2023-04-03T05:18:16;2.80;;;1.52;;
70920;SDS011;58572;48.110;19.838;2023-04-03T05:20:43;2.40;;;1.58;;
70920;SDS011;58572;48.110;19.838;2023-04-03T05:23:10;3.95;;;1.83;;
70920;SDS011;58572;48.110;19.838;2023-04-03T05:25:38;2.85;;;1.73;;
70920;SDS011;58572;48.110;19.838;2023-04-03T05:28:05;2.13;;;1.30;;
70920;SDS011;58572;48.110;19.838;2023-04-03T05:33:01;2.28;;;1.42;;
70920;SDS011;58572;48.110;19.838;2023-04-03T05:35:29;2.63;;;1.27;;
70920;SDS011;58572;48.110;19.838;2023-04-03T05:37:56;2.70;;;1.40;;
70920;SDS011;58572;48.110;19.838;2023-04-03T05:40:23;2.53;;;1.23;;
70920;SDS011;58572;48.110;19.838;2023-04-03T05:42:50;2.60;;;1.27;;
70920;SDS011;58572;48.110;19.838;2023-04-03T05:47:45;1.95;;;1.13;;
70920;SDS011;58572;48.110;19.838;2023-04-03T05:50:14;2.15;;;1.23;;
70920;SDS011;58572;48.110;19.838;2023-04-03T05:52:43;2.60;;;1.38;;
70920;SDS011;58572;48.110;19.838;2023-04-03T05:55:14;1.75;;;1.00;;
70920;SDS011;58572;48.110;19.838;2023-04-03T05:57:42;2.20;;;1.25;;
70920;SDS011;58572;48.110;19.838;2023-04-03T06:00:11;1.63;;;1.00;;
70920;SDS011;58572;48.110;19.838;2023-04-03T06:02:40;1.02;;;0.85;;
70920;SDS011;58572;48.110;19.838;2023-04-03T06:05:08;1.85;;;1.10;;
70920;SDS011;58572;48.110;19.838;2023-04-03T06:07:38;1.77;;;0.98;;
70920;SDS011;58572;48.110;19.838;2023-04-03T06:10:06;1.85;;;1.08;;
70920;SDS011;58572;48.110;19.838;2023-04-03T06:12:34;1.92;;;0.52;;
70920;SDS011;58572;48.110;19.838;2023-04-03T06:15:01;0.90;;;0.75;;
70920;SDS011;58572;48.110;19.838;2023-04-03T06:17:28;1.58;;;0.70;;
70920;SDS011;58572;48.110;19.838;2023-04-03T06:19:56;1.45;;;1.00;;
70920;SDS011;58572;48.110;19.838;2023-04-03T06:22:23;0.88;;;0.73;;
70920;SDS011;58572;48.110;19.838;2023-04-03T06:24:54;1.48;;;1.15;;
70920;SDS011;58572;48.110;19.838;2023-04-03T06:27:21;2.58;;;0.70;;
70920;SDS011;58572;48.110;19.838;2023-04-03T06:29:48;1.45;;;0.90;;
70920;SDS011;58572;48.110;19.838;2023-04-03T06:34:43;1.85;;;1.30;;
70920;SDS011;58572;48.110;19.838;2023-04-03T06:37:10;1.88;;;1.10;;
70920;SDS011;58572;48.110;19.838;2023-04-03T06:39:41;1.83;;;1.25;;
70920;SDS011;58572;48.110;19.838;2023-04-03T06:42:10;0.98;;;0.75;;
70920;SDS011;58572;48.110;19.838;2023-04-03T06:44:37;1.45;;;0.80;;
70920;SDS011;58572;48.110;19.838;2023-04-03T06:47:04;1.05;;;0.70;;
70920;SDS011;58572;48.110;19.838;2023-04-03T06:49:31;1.00;;;0.40;;
70920;SDS011;58572;48.110;19.838;2023-04-03T06:51:58;1.17;;;1.00;;
70920;SDS011;58572;48.110;19.838;2023-04-03T06:54:25;0.45;;;0.32;;
70920;SDS011;58572;48.110;19.838;2023-04-03T06:56:52;1.38;;;1.27;;
70920;SDS011;58572;48.110;19.838;2023-04-03T06:59:21;2.03;;;1.40;;
70920;SDS011;58572;48.110;19.838;2023-04-03T07:01:48;1.67;;;1.50;;
70920;SDS011;58572;48.110;19.838;2023-04-03T07:04:16;1.20;;;0.70;;
70920;SDS011;58572;48.110;19.838;2023-04-03T07:06:45;1.15;;;0.60;;
70920;SDS011;58572;48.110;19.838;2023-04-03T07:09:13;1.17;;;0.82;;
70920;SDS011;58572;48.110;19.838;2023-04-03T07:11:40;1.02;;;0.80;;
70920;SDS011;58572;48.110;19.838;2023-04-03T07:14:07;1.58;;;1.02;;
70920;SDS011;58572;48.110;19.838;2023-04-03T07:16:36;0.80;;;0.73;;
70920;SDS011;58572;48.110;19.838;2023-04-03T07:19:03;1.38;;;1.00;;
70920;SDS011;58572;48.110;19.838;2023-04-03T07:21:30;1.63;;;0.90;;
70920;SDS011;58572;48.110;19.838;2023-04-03T07:23:57;1.20;;;0.80;;
70920;SDS011;58572;48.110;19.838;2023-04-03T07:26:24;1.15;;;0.82;;
70920;SDS011;58572;48.110;19.838;2023-04-03T07:28:51;0.90;;;0.73;;
70920;SDS011;58572;48.110;19.838;2023-04-03T07:31:18;1.35;;;0.98;;
70920;SDS011;58572;48.110;19.838;2023-04-03T07:33:47;0.95;;;0.77;;
70920;SDS011;58572;48.110;19.838;2023-04-03T07:36:15;1.45;;;0.82;;
70920;SDS011;58572;48.110;19.838;2023-04-03T07:38:44;1.30;;;1.13;;
70920;SDS011;58572;48.110;19.838;2023-04-03T07:41:12;1.52;;;0.90;;
70920;SDS011;58572;48.110;19.838;2023-04-03T07:43:42;0.95;;;0.80;;
70920;SDS011;58572;48.110;19.838;2023-04-03T07:46:10;1.35;;;0.98;;
70920;SDS011;58572;48.110;19.838;2023-04-03T07:48:37;1.98;;;1.00;;
70920;SDS011;58572;48.110;19.838;2023-04-03T07:51:06;1.05;;;0.73;;
70920;SDS011;58572;48.110;19.838;2023-04-03T07:53:33;1.20;;;0.80;;
70920;SDS011;58572;48.110;19.838;2023-04-03T07:56:01;1.77;;;0.90;;
70920;SDS011;58572;48.110;19.838;2023-04-03T07:58:28;0.75;;;0.60;;
70920;SDS011;58572;48.110;19.838;2023-04-03T08:00:56;1.10;;;0.40;;
70920;SDS011;58572;48.110;19.838;2023-04-03T08:03:23;1.73;;;1.50;;
70920;SDS011;58572;48.110;19.838;2023-04-03T08:05:50;1.88;;;1.00;;
70920;SDS011;58572;48.110;19.838;2023-04-03T08:08:20;1.35;;;0.80;;
70920;SDS011;58572;48.110;19.838;2023-04-03T08:10:49;0.77;;;0.68;;
70920;SDS011;58572;48.110;19.838;2023-04-03T08:13:18;1.42;;;0.93;;
70920;SDS011;58572;48.110;19.838;2023-04-03T08:15:46;1.40;;;0.68;;
70920;SDS011;58572;48.110;19.838;2023-04-03T08:18:14;2.20;;;1.05;;
70920;SDS011;58572;48.110;19.838;2023-04-03T08:20:42;1.45;;;0.90;;
70920;SDS011;58572;48.110;19.838;2023-04-03T08:23:10;1.70;;;0.90;;
70920;SDS011;58572;48.110;19.838;2023-04-03T08:25:39;1.13;;;0.68;;
70920;SDS011;58572;48.110;19.838;2023-04-03T08:28:07;1.75;;;0.90;;
70920;SDS011;58572;48.110;19.838;2023-04-03T08:30:34;1.30;;;0.93;;
70920;SDS011;58572;48.110;19.838;2023-04-03T08:33:01;1.20;;;0.50;;
70920;SDS011;58572;48.110;19.838;2023-04-03T08:35:29;1.45;;;0.80;;
70920;SDS011;58572;48.110;19.838;2023-04-03T08:37:56;1.30;;;0.90;;
70920;SDS011;58572;48.110;19.838;2023-04-03T08:40:24;2.10;;;0.75;;
70920;SDS011;58572;48.110;19.838;2023-04-03T08:42:56;0.80;;;0.40;;
70920;SDS011;58572;48.110;19.838;2023-04-03T08:48:05;1.30;;;0.80;;
70920;SDS011;58572;48.110;19.838;2023-04-03T08:50:36;1.30;;;0.88;;
70920;SDS011;58572;48.110;19.838;2023-04-03T08:53:06;1.48;;;1.10;;
70920;SDS011;58572;48.110;19.838;2023-04-03T08:55:42;1.50;;;0.80;;
70920;SDS011;58572;48.110;19.838;2023-04-03T08:58:15;2.05;;;0.90;;
70920;SDS011;58572;48.110;19.838;2023-04-03T09:00:44;2.88;;;1.10;;
70920;SDS011;58572;48.110;19.838;2023-04-03T09:03:14;1.42;;;0.70;;
70920;SDS011;58572;48.110;19.838;2023-04-03T09:05:44;1.05;;;0.80;;
70920;SDS011;58572;48.110;19.838;2023-04-03T09:08:18;2.00;;;0.90;;
70920;SDS011;58572;48.110;19.838;2023-04-03T09:10:52;1.52;;;0.90;;
70920;SDS011;58572;48.110;19.838;2023-04-03T09:13:29;0.85;;;0.70;;
70920;SDS011;58572;48.110;19.838;2023-04-03T09:16:02;1.10;;;0.98;;
70920;SDS011;58572;48.110;19.838;2023-04-03T09:18:41;1.30;;;0.90;;
70920;SDS011;58572;48.110;19.838;2023-04-03T09:21:15;1.65;;;0.93;;
70920;SDS011;58572;48.110;19.838;2023-04-03T09:23:49;1.38;;;0.70;;
70920;SDS011;58572;48.110;19.838;2023-04-03T09:26:18;1.50;;;0.77;;
70920;SDS011;58572;48.110;19.838;2023-04-03T09:28:52;1.27;;;0.95;;
70920;SDS011;58572;48.110;19.838;2023-04-03T09:31:23;1.63;;;1.08;;
70920;SDS011;58572;48.110;19.838;2023-04-03T09:33:52;0.90;;;0.50;;
70920;SDS011;58572;48.110;19.838;2023-04-03T09:39:10;1.30;;;0.93;;
70920;SDS011;58572;48.110;19.838;2023-04-03T09:41:39;0.63;;;0.40;;
70920;SDS011;58572;48.110;19.838;2023-04-03T09:44:19;1.20;;;0.80;;
70920;SDS011;58572;48.110;19.838;2023-04-03T09:46:48;1.85;;;0.98;;
70920;SDS011;58572;48.110;19.838;2023-04-03T09:49:17;1.27;;;1.00;;
70920;SDS011;58572;48.110;19.838;2023-04-03T09:51:45;1.33;;;0.80;;
70920;SDS011;58572;48.110;19.838;2023-04-03T09:54:26;1.35;;;0.90;;
70920;SDS011;58572;48.110;19.838;2023-04-03T09:57:00;0.90;;;0.68;;
70920;SDS011;58572;48.110;19.838;2023-04-03T09:59:34;1.35;;;0.90;;
70920;SDS011;58572;48.110;19.838;2023-04-03T10:02:04;1.50;;;0.98;;
70920;SDS011;58572;48.110;19.838;2023-04-03T10:05:00;1.45;;;0.63;;
70920;SDS011;58572;48.110;19.838;2023-04-03T10:07:29;1.42;;;0.70;;
70920;SDS011;58572;48.110;19.838;2023-04-03T10:09:58;1.60;;;1.05;;
70920;SDS011;58572;48.110;19.838;2023-04-03T10:12:28;1.55;;;0.70;;
70920;SDS011;58572;48.110;19.838;2023-04-03T10:17:42;1.67;;;1.08;;
70920;SDS011;58572;48.110;19.838;2023-04-03T10:20:26;1.50;;;0.88;;
70920;SDS011;58572;48.110;19.838;2023-04-03T10:23:01;1.67;;;0.90;;
70920;SDS011;58572;48.110;19.838;2023-04-03T10:25:40;1.23;;;0.80;;
70920;SDS011;58572;48.110;19.838;2023-04-03T10:28:12;1.65;;;0.98;;
70920;SDS011;58572;48.110;19.838;2023-04-03T10:30:48;2.00;;;1.10;;
70920;SDS011;58572;48.110;19.838;2023-04-03T10:33:31;1.50;;;0.70;;
70920;SDS011;58572;48.110;19.838;2023-04-03T10:36:12;1.73;;;0.90;;
70920;SDS011;58572;48.110;19.838;2023-04-03T10:38:51;1.98;;;1.52;;
70920;SDS011;58572;48.110;19.838;2023-04-03T10:41:25;1.80;;;1.15;;
70920;SDS011;58572;48.110;19.838;2023-04-03T10:44:06;2.05;;;1.02;;
70920;SDS011;58572;48.110;19.838;2023-04-03T10:46:44;1.63;;;0.90;;
70920;SDS011;58572;48.110;19.838;2023-04-03T10:49:21;3.47;;;1.42;;
70920;SDS011;58572;48.110;19.838;2023-04-03T10:52:01;1.70;;;1.05;;
70920;SDS011;58572;48.110;19.838;2023-04-03T10:54:35;1.20;;;0.88;;
70920;SDS011;58572;48.110;19.838;2023-04-03T10:57:06;1.50;;;0.90;;
70920;SDS011;58572;48.110;19.838;2023-04-03T10:59:36;0.90;;;0.70;;
70920;SDS011;58572;48.110;19.838;2023-04-03T11:02:11;1.73;;;0.80;;
70920;SDS011;58572;48.110;19.838;2023-04-03T11:04:46;1.40;;;1.00;;
70920;SDS011;58572;48.110;19.838;2023-04-03T11:07:19;1.05;;;0.70;;
70920;SDS011;58572;48.110;19.838;2023-04-03T11:09:48;1.80;;;1.13;;
70920;SDS011;58572;48.110;19.838;2023-04-03T11:12:18;1.75;;;1.00;;
70920;SDS011;58572;48.110;19.838;2023-04-03T11:14:52;1.92;;;1.13;;
70920;SDS011;58572;48.110;19.838;2023-04-03T11:17:26;1.60;;;0.80;;
70920;SDS011;58572;48.110;19.838;2023-04-03T11:19:59;1.10;;;0.77;;
70920;SDS011;58572;48.110;19.838;2023-04-03T11:22:32;1.08;;;0.47;;
70920;SDS011;58572;48.110;19.838;2023-04-03T11:25:04;2.40;;;1.15;;
70920;SDS011;58572;48.110;19.838;2023-04-03T11:27:46;2.30;;;1.08;;
70920;SDS011;58572;48.110;19.838;2023-04-03T11:30:18;1.85;;;0.70;;
70920;SDS011;58572;48.110;19.838;2023-04-03T11:35:48;2.42;;;1.27;;
70920;SDS011;58572;48.110;19.838;2023-04-03T11:38:21;2.38;;;1.23;;
70920;SDS011;58572;48.110;19.838;2023-04-03T11:40:51;2.13;;;1.23;;
70920;SDS011;58572;48.110;19.838;2023-04-03T11:43:21;2.42;;;1.13;;
70920;SDS011;58572;48.110;19.838;2023-04-03T11:45:55;2.13;;;1.00;;
70920;SDS011;58572;48.110;19.838;2023-04-03T12:09:25;1.63;;;1.10;;
70920;SDS011;58572;48.110;19.838;2023-04-03T12:11:56;1.33;;;1.13;;
70920;SDS011;58572;48.110;19.838;2023-04-03T12:14:25;1.38;;;0.90;;
70920;SDS011;58572;48.110;19.838;2023-04-03T12:16:55;2.40;;;1.38;;
70920;SDS011;58572;48.110;19.838;2023-04-03T12:22:12;1.95;;;1.20;;
70920;SDS011;58572;48.110;19.838;2023-04-03T12:24:44;1.63;;;0.68;;
70920;SDS011;58572;48.110;19.838;2023-04-03T12:30:07;1.65;;;1.10;;
70920;SDS011;58572;48.110;19.838;2023-04-03T12:35:31;1.38;;;0.73;;
70920;SDS011;58572;48.110;19.838;2023-04-03T12:38:22;1.58;;;1.13;;
70920;SDS011;58572;48.110;19.838;2023-04-03T12:41:13;1.00;;;0.70;;
70920;SDS011;58572;48.110;19.838;2023-04-03T12:43:58;2.08;;;1.13;;
70920;SDS011;58572;48.110;19.838;2023-04-03T12:46:36;2.33;;;0.98;;
70920;SDS011;58572;48.110;19.838;2023-04-03T12:49:12;2.97;;;1.10;;
70920;SDS011;58572;48.110;19.838;2023-04-03T12:51:49;2.05;;;1.20;;
70920;SDS011;58572;48.110;19.838;2023-04-03T12:54:18;2.80;;;1.15;;
70920;SDS011;58572;48.110;19.838;2023-04-03T12:56:50;0.82;;;0.43;;
70920;SDS011;58572;48.110;19.838;2023-04-03T12:59:19;2.15;;;1.00;;
70920;SDS011;58572;48.110;19.838;2023-04-03T13:01:54;2.85;;;1.38;;
70920;SDS011;58572;48.110;19.838;2023-04-03T13:06:49;1.95;;;0.90;;
70920;SDS011;58572;48.110;19.838;2023-04-03T13:09:18;2.00;;;1.05;;
70920;SDS011;58572;48.110;19.838;2023-04-03T13:11:48;2.15;;;1.20;;
70920;SDS011;58572;48.110;19.838;2023-04-03T13:14:18;5.90;;;0.93;;
70920;SDS011;58572;48.110;19.838;2023-04-03T13:16:54;3.10;;;1.30;;
70920;SDS011;58572;48.110;19.838;2023-04-03T13:19:22;2.00;;;1.10;;
70920;SDS011;58572;48.110;19.838;2023-04-03T13:24:19;2.08;;;1.20;;
70920;SDS011;58572;48.110;19.838;2023-04-03T13:26:46;2.90;;;1.15;;
70920;SDS011;58572;48.110;19.838;2023-04-03T13:29:21;3.72;;;1.33;;
70920;SDS011;58572;48.110;19.838;2023-04-03T13:31:52;3.25;;;1.70;;
70920;SDS011;58572;48.110;19.838;2023-04-03T13:34:22;1.85;;;1.10;;
70920;SDS011;58572;48.110;19.838;2023-04-03T13:36:55;2.85;;;1.30;;
70920;SDS011;58572;48.110;19.838;2023-04-03T13:39:25;2.50;;;1.33;;
70920;SDS011;58572;48.110;19.838;2023-04-03T13:41:54;1.70;;;1.10;;
70920;SDS011;58572;48.110;19.838;2023-04-03T13:44:31;1.98;;;0.82;;
70920;SDS011;58572;48.110;19.838;2023-04-03T13:47:13;2.55;;;1.67;;
70920;SDS011;58572;48.110;19.838;2023-04-03T13:49:44;2.35;;;1.30;;
70920;SDS011;58572;48.110;19.838;2023-04-03T13:52:22;1.58;;;0.90;;
70920;SDS011;58572;48.110;19.838;2023-04-03T13:54:52;1.58;;;1.10;;
70920;SDS011;58572;48.110;19.838;2023-04-03T13:57:21;3.30;;;1.30;;
70920;SDS011;58572;48.110;19.838;2023-04-03T13:59:50;1.98;;;1.13;;
70920;SDS011;58572;48.110;19.838;2023-04-03T14:02:19;2.35;;;1.20;;
70920;SDS011;58572;48.110;19.838;2023-04-03T14:04:52;1.25;;;0.90;;
70920;SDS011;58572;48.110;19.838;2023-04-03T14:07:23;3.17;;;1.70;;
70920;SDS011;58572;48.110;19.838;2023-04-03T14:09:51;2.92;;;1.48;;
70920;SDS011;58572;48.110;19.838;2023-04-03T14:12:21;2.78;;;1.45;;
70920;SDS011;58572;48.110;19.838;2023-04-03T14:14:54;3.42;;;1.60;;
70920;SDS011;58572;48.110;19.838;2023-04-03T14:17:23;2.17;;;1.17;;
70920;SDS011;58572;48.110;19.838;2023-04-03T14:19:52;2.60;;;1.40;;
70920;SDS011;58572;48.110;19.838;2023-04-03T14:22:21;2.03;;;1.23;;
70920;SDS011;58572;48.110;19.838;2023-04-03T14:24:50;2.55;;;1.52;;
70920;SDS011;58572;48.110;19.838;2023-04-03T14:27:18;7.75;;;1.95;;
70920;SDS011;58572;48.110;19.838;2023-04-03T14:29:47;2.67;;;1.85;;
70920;SDS011;58572;48.110;19.838;2023-04-03T14:32:17;2.13;;;1.40;;
70920;SDS011;58572;48.110;19.838;2023-04-03T14:34:46;2.60;;;1.50;;
70920;SDS011;58572;48.110;19.838;2023-04-03T14:37:15;3.65;;;1.75;;
70920;SDS011;58572;48.110;19.838;2023-04-03T14:39:44;2.42;;;1.30;;
70920;SDS011;58572;48.110;19.838;2023-04-03T14:42:13;2.72;;;1.60;;
70920;SDS011;58572;48.110;19.838;2023-04-03T14:44:41;2.67;;;1.40;;
70920;SDS011;58572;48.110;19.838;2023-04-03T14:47:10;3.17;;;1.63;;
70920;SDS011;58572;48.110;19.838;2023-04-03T14:49:39;2.13;;;1.58;;
70920;SDS011;58572;48.110;19.838;2023-04-03T14:52:09;2.95;;;1.83;;
70920;SDS011;58572;48.110;19.838;2023-04-03T14:54:45;3.28;;;1.85;;
70920;SDS011;58572;48.110;19.838;2023-04-03T14:57:13;1.70;;;1.25;;
70920;SDS011;58572;48.110;19.838;2023-04-03T14:59:41;1.45;;;1.20;;
70920;SDS011;58572;48.110;19.838;2023-04-03T15:02:20;3.20;;;1.23;;
70920;SDS011;58572;48.110;19.838;2023-04-03T15:04:53;3.42;;;1.70;;
70920;SDS011;58572;48.110;19.838;2023-04-03T15:07:21;3.80;;;1.73;;
70920;SDS011;58572;48.110;19.838;2023-04-03T15:09:49;5.00;;;3.60;;
70920;SDS011;58572;48.110;19.838;2023-04-03T15:12:17;2.33;;;1.40;;
70920;SDS011;58572;48.110;19.838;2023-04-03T15:14:44;1.95;;;1.33;;
70920;SDS011;58572;48.110;19.838;2023-04-03T15:17:13;2.00;;;1.10;;
70920;SDS011;58572;48.110;19.838;2023-04-03T15:19:42;4.47;;;1.50;;
70920;SDS011;58572;48.110;19.838;2023-04-03T15:22:14;2.28;;;1.38;;
70920;SDS011;58572;48.110;19.838;2023-04-03T15:24:42;3.90;;;2.22;;
70920;SDS011;58572;48.110;19.838;2023-04-03T15:27:09;4.22;;;1.65;;
70920;SDS011;58572;48.110;19.838;2023-04-03T15:29:37;1.33;;;0.73;;
70920;SDS011;58572;48.110;19.838;2023-04-03T15:32:06;1.20;;;0.80;;
70920;SDS011;58572;48.110;19.838;2023-04-03T15:34:34;2.45;;;1.40;;
70920;SDS011;58572;48.110;19.838;2023-04-03T15:37:01;3.35;;;1.90;;
70920;SDS011;58572;48.110;19.838;2023-04-03T15:39:30;3.80;;;1.85;;
70920;SDS011;58572;48.110;19.838;2023-04-03T15:41:58;3.47;;;1.88;;
70920;SDS011;58572;48.110;19.838;2023-04-03T15:44:31;2.55;;;1.73;;
70920;SDS011;58572;48.110;19.838;2023-04-03T15:47:01;2.63;;;1.77;;